Time;durP1;ratioP1;P1;durP2;ratioP2;P2;SDS_P1;SDS_P2;PMS_P1;PMS_P2;Temp;Humidity;BMP_temperature;BMP_pressure;BME280_temperature;BME280_humidity;BME280_pressure;Samples;Min_cycle;Max_cycle;Signal;HPM_P1;HPM_P2
2022/10/12 06:31:38;;;;;;;;;7.00;5.00;;;;;18.29;54.17;101988.81;5075346;27;45672;-75
2022/10/12 06:34:04;;;;;;;;;8.50;6.00;;;;;18.44;54.65;101992.25;5055348;27;45608;-76
2022/10/12 06:36:29;;;;;;;;;6.75;6.25;;;;;18.65;54.53;101994.47;5051331;27;45488;-76
2022/10/12 06:38:55;;;;;;;;;2.25;1.50;;;;;18.91;53.81;101986.41;5057559;28;46857;-77
2022/10/12 06:41:20;;;;;;;;;7.50;6.00;;;;;19.22;53.65;101988.81;5057240;27;45599;-78
2022/10/12 06:43:45;;;;;;;;;5.00;4.00;;;;;19.54;53.66;101992.84;5056001;28;45641;-77
2022/10/12 06:46:10;;;;;;;;;6.75;6.75;;;;;19.86;53.37;101994.97;5059319;27;45581;-77
2022/10/12 06:48:36;;;;;;;;;6.00;6.00;;;;;20.17;52.67;101994.56;5058444;27;46033;-77
2022/10/12 06:51:01;;;;;;;;;5.25;5.25;;;;;20.50;52.74;102004.63;5058116;27;47284;-76
2022/10/12 06:53:29;;;;;;;;;5.67;5.67;;;;;20.81;51.85;101998.72;5059278;27;45545;-77
2022/10/12 06:55:55;;;;;;;;;8.00;8.00;;;;;21.11;51.76;102002.69;5058551;28;45529;-77
2022/10/12 06:58:20;;;;;;;;;9.67;7.67;;;;;21.41;51.18;102008.44;5055535;28;45819;-79
2022/10/12 07:00:46;;;;;;;;;6.33;6.33;;;;;21.68;50.64;102013.47;5058983;27;48206;-78
2022/10/12 07:03:12;;;;;;;;;7.00;7.00;;;;;21.93;50.36;102010.63;5058888;27;45547;-80
2022/10/12 07:05:37;;;;;;;;;9.00;7.00;;;;;22.14;49.63;102012.53;5054474;27;45938;-77
2022/10/12 07:08:03;;;;;;;;;6.00;6.00;;;;;22.31;49.72;102009.25;5058133;28;45656;-78
2022/10/12 07:10:28;;;;;;;;;11.33;8.00;;;;;22.46;49.34;102012.50;5053848;28;47052;-77
2022/10/12 07:12:53;;;;;;;;;4.33;4.33;;;;;22.60;48.71;102022.19;5057002;28;45544;-77
2022/10/12 07:15:19;;;;;;;;;6.67;6.67;;;;;22.72;48.81;102022.97;5058591;27;45513;-77
2022/10/12 07:17:44;;;;;;;;;7.00;7.00;;;;;22.86;48.69;102029.91;5059645;27;45767;-76
2022/10/12 07:21:24;;;;;;;;;7.33;7.33;;;;;22.93;48.54;102015.84;5042372;27;46049;-81
2022/10/12 07:23:49;;;;;;;;;7.00;5.67;;;;;23.15;47.96;102031.06;5030957;28;46924;-77
2022/10/12 07:26:15;;;;;;;;;8.00;5.00;;;;;23.26;48.15;102027.41;5031326;28;45541;-77
2022/10/12 07:28:40;;;;;;;;;6.33;6.33;;;;;23.34;47.66;102033.03;5048250;28;45691;-77
2022/10/12 07:31:08;;;;;;;;;5.67;5.67;;;;;23.42;47.32;102035.06;5029392;28;45506;-76
2022/10/12 07:33:35;;;;;;;;;5.00;5.00;;;;;23.49;47.35;102036.22;5034833;28;45686;-75
2022/10/12 07:36:01;;;;;;;;;7.33;6.33;;;;;23.54;47.45;102025.84;5030664;28;46239;-76
2022/10/12 07:38:27;;;;;;;;;7.00;7.00;;;;;23.69;47.15;102031.72;5028096;28;45727;-76
2022/10/12 07:40:53;;;;;;;;;3.67;3.67;;;;;23.80;47.20;102041.59;5034176;28;45598;-76
2022/10/12 07:43:18;;;;;;;;;6.33;6.00;;;;;23.92;47.08;102038.78;5040194;28;45435;-78
2022/10/12 07:45:44;;;;;;;;;7.33;6.67;;;;;24.01;46.71;102046.06;5044298;28;45599;-75
2022/10/12 07:48:09;;;;;;;;;6.33;6.33;;;;;24.07;47.04;102042.78;5039229;28;45589;-75
2022/10/12 07:50:34;;;;;;;;;5.67;5.33;;;;;24.14;46.56;102037.69;5037832;28;47064;-79
2022/10/12 07:53:00;;;;;;;;;7.00;7.00;;;;;24.20;45.92;102045.25;5031657;28;45610;-80
2022/10/12 07:55:25;;;;;;;;;7.00;7.00;;;;;24.21;46.18;102038.81;5032256;28;45995;-78
2022/10/12 07:57:50;;;;;;;;;6.00;6.00;;;;;24.24;45.75;102055.81;5030090;28;45506;-81
2022/10/12 08:00:16;;;;;;;;;6.00;6.00;;;;;24.22;45.89;102053.25;5045993;27;46004;-78
2022/10/12 08:02:42;;;;;;;;;7.00;7.00;;;;;24.22;45.62;102050.53;5054124;28;45581;-79
2022/10/12 08:05:07;;;;;;;;;6.67;6.67;;;;;24.21;45.51;102054.25;5056018;28;45675;-78
2022/10/12 08:07:33;;;;;;;;;4.67;4.67;;;;;24.20;45.40;102049.84;5035425;28;46711;-75
2022/10/12 08:09:58;;;;;;;;;6.00;4.33;;;;;24.22;45.45;102042.41;5046444;28;48267;-76
2022/10/12 08:12:23;;;;;;;;;10.00;6.33;;;;;24.25;45.48;102052.13;5026924;28;45761;-76
2022/10/12 08:14:49;;;;;;;;;5.00;5.00;;;;;24.30;45.72;102056.13;5028591;28;45712;-75
2022/10/12 08:17:14;;;;;;;;;5.67;5.33;;;;;24.37;45.50;102052.81;5046028;28;46098;-75
2022/10/12 08:19:39;;;;;;;;;5.00;5.00;;;;;24.45;45.54;102052.97;5037838;27;45581;-76
2022/10/12 08:22:05;;;;;;;;;6.00;6.00;;;;;24.51;45.49;102052.41;5051700;27;45452;-78
2022/10/12 08:24:30;;;;;;;;;7.67;6.00;;;;;24.58;45.46;102064.41;5051076;27;46587;-78
2022/10/12 08:26:55;;;;;;;;;7.33;7.33;;;;;24.65;45.61;102052.97;5051711;27;45539;-78
2022/10/12 08:29:21;;;;;;;;;5.00;5.00;;;;;24.72;45.49;102060.38;5053411;27;49711;-77
2022/10/12 08:31:49;;;;;;;;;6.00;6.00;;;;;24.80;45.32;102066.97;5042775;28;45573;-76
2022/10/12 08:34:15;;;;;;;;;6.67;6.67;;;;;24.84;45.11;102060.25;5051203;28;45494;-75
2022/10/12 08:36:40;;;;;;;;;5.67;5.67;;;;;24.88;45.27;102061.66;5058906;28;45362;-77
2022/10/12 08:39:07;;;;;;;;;7.33;5.33;;;;;24.90;45.25;102059.69;5055726;28;63411;-78
2022/10/12 08:41:47;;;;;;;;;6.00;6.00;;;;;24.94;45.05;102054.81;5050480;28;45427;-78
2022/10/12 08:44:40;;;;;;;;;5.00;5.00;;;;;24.96;45.21;102055.50;5049422;28;45367;-76
2022/10/12 08:47:17;;;;;;;;;7.00;7.00;;;;;24.97;45.35;102055.38;5048073;28;45607;-79
2022/10/12 08:49:44;;;;;;;;;7.00;7.00;;;;;24.98;45.23;102058.94;5056968;28;45469;-80
2022/10/12 08:52:42;;;;;;;;;8.33;6.33;;;;;25.02;45.29;102062.22;5070099;28;45258;-78
2022/10/12 08:55:23;;;;;;;;;6.33;5.67;;;;;25.05;45.25;102067.38;5038079;28;45632;-78
2022/10/12 08:57:48;;;;;;;;;7.00;5.33;;;;;25.08;45.32;102067.06;5058713;28;45638;-79
2022/10/12 09:00:14;;;;;;;;;5.00;5.00;;;;;25.12;45.04;102066.63;5056584;28;45718;-79
2022/10/12 09:03:06;;;;;;;;;5.00;5.00;;;;;25.18;45.54;102080.63;5071030;28;45476;-78
2022/10/12 09:05:45;;;;;;;;;6.00;6.00;;;;;25.22;45.20;102084.75;5064865;28;45434;-78
2022/10/12 09:08:30;;;;;;;;;7.33;7.33;;;;;25.25;44.81;102092.59;5060398;28;45523;-74
2022/10/12 09:11:02;;;;;;;;;10.67;6.67;;;;;25.21;43.01;102080.31;5052869;28;46193;-75
2022/10/12 09:13:53;;;;;;;;;10.00;9.00;;;;;25.09;42.70;102077.78;5056449;28;45802;-75
2022/10/12 09:16:22;;;;;;;;;7.67;7.67;;;;;24.90;42.50;102067.84;5042320;28;45392;-75
2022/10/12 09:18:53;;;;;;;;;8.33;7.33;;;;;24.78;42.40;102058.09;5063906;28;45412;-75
2022/10/12 09:21:20;;;;;;;;;10.33;9.00;;;;;24.63;42.35;102063.97;5041969;28;45438;-75
2022/10/12 09:23:47;;;;;;;;;11.00;6.67;;;;;24.48;42.51;102061.69;5056021;28;45578;-75
2022/10/12 09:26:14;;;;;;;;;10.00;8.33;;;;;24.41;42.15;102054.25;5053649;28;45389;-75
2022/10/12 09:28:53;;;;;;;;;4.67;4.67;;;;;24.30;42.68;102063.38;5055782;28;45714;-75
2022/10/12 09:31:40;;;;;;;;;8.00;5.33;;;;;24.21;42.54;102060.53;5051389;28;45448;-75
2022/10/12 09:34:07;;;;;;;;;9.00;7.00;;;;;24.14;43.04;102067.53;5049467;28;45542;-78
2022/10/12 09:36:40;;;;;;;;;8.00;8.00;;;;;24.08;43.25;102049.91;5054667;28;45454;-76
2022/10/12 09:39:17;;;;;;;;;8.67;7.33;;;;;24.07;43.40;102053.63;5051754;28;45391;-75
2022/10/12 09:41:45;;;;;;;;;10.33;8.00;;;;;24.11;43.71;102051.53;5042095;28;46143;-75
2022/10/12 09:44:25;;;;;;;;;9.33;8.67;;;;;24.15;43.40;102049.41;5057379;28;45465;-74
2022/10/12 09:46:58;;;;;;;;;9.00;8.33;;;;;24.18;43.83;102049.97;5040285;28;45532;-73
2022/10/12 09:49:44;;;;;;;;;7.00;6.67;;;;;24.20;43.96;102047.97;5059593;28;45519;-74
2022/10/12 09:52:11;;;;;;;;;7.00;6.33;;;;;24.23;44.07;102038.69;5054245;28;46178;-76
2022/10/12 09:54:44;;;;;;;;;7.33;7.33;;;;;24.24;43.88;102032.28;5054532;28;45594;-75
2022/10/12 09:57:09;;;;;;;;;7.33;7.33;;;;;24.29;44.02;102026.41;5054620;28;45405;-75
2022/10/12 09:59:43;;;;;;;;;7.67;7.33;;;;;24.32;44.05;102029.69;5065928;28;45456;-75
2022/10/12 10:02:09;;;;;;;;;6.67;6.00;;;;;24.37;44.02;102033.84;5053909;28;45581;-75
2022/10/12 10:04:35;;;;;;;;;11.33;7.00;;;;;24.39;44.01;102037.28;5053800;28;45559;-75
2022/10/12 10:07:29;;;;;;;;;6.00;6.00;;;;;24.43;44.33;102046.81;5057102;28;45520;-75
2022/10/12 10:10:20;;;;;;;;;8.00;6.67;;;;;24.45;44.34;102033.97;5054835;28;45456;-75
2022/10/12 10:12:50;;;;;;;;;5.67;5.67;;;;;24.48;44.64;102036.41;5050978;28;45424;-75
2022/10/12 10:15:23;;;;;;;;;7.00;7.00;;;;;24.50;44.42;102022.69;5066598;28;45573;-75
2022/10/12 10:17:52;;;;;;;;;7.67;7.67;;;;;24.54;44.32;102027.69;5055554;28;45487;-76
2022/10/12 10:20:33;;;;;;;;;7.67;7.67;;;;;24.57;44.41;102024.66;5062517;28;45545;-76
2022/10/12 10:22:59;;;;;;;;;7.33;6.00;;;;;24.58;44.41;102020.13;5065789;28;46363;-75
2022/10/12 10:25:25;;;;;;;;;10.00;8.00;;;;;24.58;44.22;102015.56;5055339;28;45453;-75
2022/10/12 10:28:11;;;;;;;;;9.33;6.00;;;;;24.61;44.26;102020.66;5065868;28;45478;-75
2022/10/12 10:30:37;;;;;;;;;9.00;7.67;;;;;24.61;44.25;102020.66;5059341;28;45478;-75
2022/10/12 10:33:17;;;;;;;;;7.00;5.67;;;;;24.66;44.37;102017.53;5054216;28;45463;-75
2022/10/12 10:35:56;;;;;;;;;7.00;7.00;;;;;24.70;44.47;102015.38;5036982;28;45509;-77
2022/10/12 10:38:21;;;;;;;;;6.67;6.67;;;;;24.73;44.06;102018.66;5051779;28;45786;-76
2022/10/12 10:40:56;;;;;;;;;10.00;5.33;;;;;24.73;44.33;102020.53;5054497;28;45459;-75
2022/10/12 10:43:30;;;;;;;;;7.00;6.00;;;;;24.75;44.42;102013.09;5067567;28;45474;-76
2022/10/12 10:46:00;;;;;;;;;7.50;6.00;;;;;24.80;44.33;102018.09;5065178;28;45526;-75
2022/10/12 10:48:38;;;;;;;;;6.67;6.67;;;;;24.82;44.18;102014.22;5053077;28;45655;-78
2022/10/12 10:51:05;;;;;;;;;7.33;7.33;;;;;24.82;44.40;102016.94;5041906;28;45451;-75
2022/10/12 10:53:42;;;;;;;;;6.67;6.67;;;;;24.84;44.50;102016.81;5056434;28;46313;-78
2022/10/12 10:56:14;;;;;;;;;9.67;6.00;;;;;24.83;44.71;102006.94;5054744;28;45507;-79
2022/10/12 10:58:47;;;;;;;;;6.33;6.00;;;;;24.90;44.59;102004.50;5048499;28;45503;-77
2022/10/12 11:01:25;;;;;;;;;7.67;5.67;;;;;24.92;44.75;102006.06;5054854;28;45818;-79
2022/10/12 11:04:03;;;;;;;;;7.00;7.00;;;;;24.97;44.61;102003.75;5063427;28;45550;-78
2022/10/12 11:06:51;;;;;;;;;7.33;7.00;;;;;25.01;44.66;102007.03;5055243;28;45388;-79
2022/10/12 11:09:28;;;;;;;;;7.67;6.00;;;;;25.09;44.38;102014.47;5051007;28;45428;-79
2022/10/12 11:12:09;;;;;;;;;8.00;7.00;;;;;25.13;44.52;102005.00;5048842;28;45403;-77
2022/10/12 11:14:44;;;;;;;;;8.00;8.00;;;;;25.20;43.91;102014.28;5032848;28;46205;-77
2022/10/12 11:17:19;;;;;;;;;5.67;5.67;;;;;25.23;44.18;102016.69;5047057;28;45353;-78
2022/10/12 11:20:02;;;;;;;;;6.00;6.00;;;;;25.27;43.29;102006.38;5064414;28;45361;-74
2022/10/12 11:23:14;;;;;;;;;7.67;6.67;;;;;25.27;43.44;102012.66;5052282;28;45432;-74
2022/10/12 11:25:58;;;;;;;;;8.00;5.00;;;;;25.25;43.70;102001.09;4989857;28;45404;-74
2022/10/12 11:28:29;;;;;;;;;7.00;7.00;;;;;25.24;43.57;101998.50;4990417;28;45612;-74
2022/10/12 11:30:56;;;;;;;;;8.67;6.00;;;;;25.24;43.52;101999.38;4991500;28;45395;-74
2022/10/12 11:33:25;;;;;;;;;5.33;5.33;;;;;25.24;43.34;101995.81;4990304;28;45485;-75
2022/10/12 11:35:53;;;;;;;;;6.00;5.67;;;;;25.24;43.53;101983.09;4990077;28;45540;-74
2022/10/12 11:38:24;;;;;;;;;8.00;6.00;;;;;25.23;43.45;101994.09;4985393;28;45499;-73
2022/10/12 11:41:01;;;;;;;;;6.67;6.67;;;;;25.22;43.26;101989.66;4991054;28;45418;-74
2022/10/12 11:43:36;;;;;;;;;8.33;6.00;;;;;25.20;43.47;101984.38;4991568;28;45579;-74
2022/10/12 11:46:06;;;;;;;;;6.33;6.00;;;;;25.18;43.71;101975.50;4994561;28;46153;-74
2022/10/12 11:48:50;;;;;;;;;5.00;5.00;;;;;25.17;43.34;101967.53;4989078;28;45489;-75
2022/10/12 11:51:15;;;;;;;;;8.67;6.00;;;;;25.16;43.37;101973.94;4991544;28;45419;-75
2022/10/12 11:54:03;;;;;;;;;7.00;7.00;;;;;25.16;43.37;101974.81;4988334;28;45406;-75
2022/10/12 11:56:32;;;;;;;;;6.67;6.00;;;;;25.17;43.18;101964.81;4975121;28;45718;-75
2022/10/12 11:59:02;;;;;;;;;7.00;7.00;;;;;25.18;43.32;101966.53;4982040;28;45990;-77
2022/10/12 12:01:49;;;;;;;;;4.67;4.00;;;;;25.17;43.72;101959.38;4990891;28;46114;-75
2022/10/12 12:04:26;;;;;;;;;7.00;6.00;;;;;25.14;43.62;101949.69;5048429;28;45688;-75
2022/10/12 12:06:58;;;;;;;;;6.33;6.33;;;;;25.14;43.52;101955.09;5061693;28;45660;-76
2022/10/12 12:09:49;;;;;;;;;7.33;7.00;;;;;25.12;43.90;101951.66;5046418;28;45513;-75
2022/10/12 12:12:22;;;;;;;;;6.00;6.00;;;;;25.13;43.95;101945.22;5046822;28;45623;-75
2022/10/12 12:14:54;;;;;;;;;6.00;5.67;;;;;25.17;43.88;101951.22;5053857;28;45541;-75
2022/10/12 12:17:19;;;;;;;;;5.67;5.67;;;;;25.21;44.47;101952.63;5035426;28;47369;-74
2022/10/12 12:19:48;;;;;;;;;5.00;5.00;;;;;25.28;44.21;101951.03;5048015;28;45518;-75
2022/10/12 12:22:18;;;;;;;;;7.00;5.67;;;;;25.34;44.12;101930.56;5046512;28;45754;-75
2022/10/12 12:25:13;;;;;;;;;8.67;6.00;;;;;25.39;44.46;101917.34;5043953;28;45410;-75
2022/10/12 12:27:49;;;;;;;;;6.00;6.00;;;;;25.53;44.07;101925.00;5041054;28;45422;-74
2022/10/12 12:30:17;;;;;;;;;5.00;5.00;;;;;25.60;44.21;101917.09;5021958;28;45770;-78
2022/10/12 12:32:53;;;;;;;;;6.00;5.67;;;;;25.67;43.92;101914.63;5041245;28;45448;-78
2022/10/12 12:35:27;;;;;;;;;6.00;6.00;;;;;25.72;43.86;101915.00;5046900;28;45779;-77
2022/10/12 12:38:02;;;;;;;;;7.67;7.67;;;;;25.74;43.64;101909.41;5040843;28;46025;-78
2022/10/12 12:40:27;;;;;;;;;5.67;5.00;;;;;25.79;44.34;101907.09;5045715;28;45553;-77
2022/10/12 12:43:19;;;;;;;;;7.00;7.00;;;;;25.80;44.06;101903.34;5043395;28;45414;-78
2022/10/12 12:46:10;;;;;;;;;5.67;5.67;;;;;25.82;44.04;101919.53;5049042;28;45609;-78
2022/10/12 12:48:41;;;;;;;;;8.00;7.00;;;;;25.83;44.26;101916.63;5043272;28;46000;-77
2022/10/12 12:51:13;;;;;;;;;8.00;6.00;;;;;25.85;44.13;101914.63;5044156;28;45472;-78
2022/10/12 12:53:47;;;;;;;;;5.33;5.00;;;;;25.86;44.11;101901.84;5049548;28;45457;-79
2022/10/12 12:56:31;;;;;;;;;7.67;6.00;;;;;25.86;43.81;101901.84;5042474;28;45492;-78
2022/10/12 12:59:33;;;;;;;;;5.33;5.33;;;;;25.86;43.91;101900.00;5065695;28;45495;-76
2022/10/12 13:02:29;;;;;;;;;5.00;5.00;;;;;25.87;44.22;101903.59;5049969;28;45710;-78
2022/10/12 13:05:06;;;;;;;;;3.33;3.33;;;;;25.90;44.43;101925.00;5047224;28;45567;-75
2022/10/12 13:08:03;;;;;;;;;7.67;6.00;;;;;25.94;44.12;101914.69;5057014;28;45563;-75
2022/10/12 13:10:38;;;;;;;;;7.00;6.00;;;;;25.98;44.81;101903.34;5040817;28;46798;-79
2022/10/12 13:13:32;;;;;;;;;7.33;6.33;;;;;26.03;44.69;101902.84;5043439;28;46221;-75
2022/10/12 13:15:57;;;;;;;;;5.00;5.00;;;;;26.09;44.18;101895.94;5047952;28;45469;-75
2022/10/12 13:18:44;;;;;;;;;5.00;5.00;;;;;26.13;44.46;101894.59;5039630;28;45444;-75
2022/10/12 13:21:16;;;;;;;;;7.67;5.67;;;;;26.16;44.56;101903.28;5052780;28;46400;-75
2022/10/12 13:23:45;;;;;;;;;4.67;4.67;;;;;26.20;44.73;101901.13;5045800;28;45467;-75
2022/10/12 13:26:17;;;;;;;;;4.00;3.00;;;;;26.23;44.19;101903.53;5048811;28;45467;-75
2022/10/12 13:28:46;;;;;;;;;4.67;4.67;;;;;26.27;44.12;101912.25;5055178;28;45590;-75
2022/10/12 13:31:21;;;;;;;;;4.33;4.33;;;;;26.26;44.81;101903.25;5050490;28;45947;-73
2022/10/12 13:33:59;;;;;;;;;5.67;4.00;;;;;26.27;44.65;101902.22;5048437;28;45476;-75
2022/10/12 13:36:30;;;;;;;;;9.00;6.00;;;;;26.28;44.79;101901.22;5068719;28;45786;-75
2022/10/12 13:38:58;;;;;;;;;9.00;7.00;;;;;26.26;44.26;101900.53;5062094;28;45473;-74
2022/10/12 13:41:29;;;;;;;;;5.00;5.00;;;;;26.29;44.68;101902.06;5053411;28;46314;-75
2022/10/12 13:43:58;;;;;;;;;4.00;4.00;;;;;26.31;44.29;101902.75;5039935;28;45518;-75
2022/10/12 13:46:42;;;;;;;;;5.00;5.00;;;;;26.31;44.66;101902.75;5050242;28;47035;-75
2022/10/12 13:49:15;;;;;;;;;5.67;4.00;;;;;26.31;44.84;101890.00;5051599;28;45471;-73
2022/10/12 13:51:43;;;;;;;;;7.00;5.67;;;;;26.34;44.80;101887.97;5053755;28;45389;-74
2022/10/12 13:54:17;;;;;;;;;5.00;5.00;;;;;26.39;44.70;101893.78;5036502;28;45756;-74
2022/10/12 13:56:43;;;;;;;;;5.67;5.00;;;;;26.44;44.77;101896.88;5063842;28;45875;-73
2022/10/12 13:59:17;;;;;;;;;5.00;5.00;;;;;26.48;45.02;101881.94;5053156;28;45889;-73
2022/10/12 14:01:47;;;;;;;;;4.00;4.00;;;;;26.53;44.51;101881.47;5054242;28;45693;-74
2022/10/12 14:04:12;;;;;;;;;4.00;4.00;;;;;26.57;44.44;101888.31;5054020;28;45710;-74
2022/10/12 14:06:38;;;;;;;;;4.33;4.33;;;;;26.58;44.46;101882.66;5054513;28;45743;-75
2022/10/12 14:09:09;;;;;;;;;4.00;4.00;;;;;26.61;44.16;101881.53;5055144;28;45508;-71
2022/10/12 14:11:35;;;;;;;;;3.67;3.67;;;;;26.61;44.43;101880.66;5044569;28;47069;-72
2022/10/12 14:14:02;;;;;;;;;6.00;6.00;;;;;26.57;44.22;101874.69;5026609;28;45334;-74
2022/10/12 14:16:27;;;;;;;;;2.00;2.00;;;;;26.55;44.06;101888.47;5036064;28;45459;-74
2022/10/12 14:18:53;;;;;;;;;6.33;4.00;;;;;26.51;44.21;101887.06;5022468;28;45448;-75
2022/10/12 14:21:24;;;;;;;;;5.00;4.33;;;;;26.47;44.08;101890.25;5068217;28;46435;-75
2022/10/12 14:23:56;;;;;;;;;6.00;4.33;;;;;26.42;44.18;101899.78;5042570;28;45352;-74
2022/10/12 14:26:32;;;;;;;;;5.00;5.00;;;;;26.37;44.49;101885.81;5056607;28;45583;-77
2022/10/12 14:28:58;;;;;;;;;6.33;4.00;;;;;26.37;43.96;101888.53;5062336;28;45541;-77
2022/10/12 14:31:53;;;;;;;;;5.00;5.00;;;;;26.36;44.33;101896.84;5050711;28;45499;-75
2022/10/12 14:34:22;;;;;;;;;6.00;6.00;;;;;26.31;44.71;101886.44;5042962;28;45573;-76
2022/10/12 14:37:01;;;;;;;;;4.00;4.00;;;;;26.29;44.68;101892.03;5046618;28;45521;-75
2022/10/12 14:39:27;;;;;;;;;5.00;5.00;;;;;26.26;44.18;101888.78;5040019;28;45559;-75
2022/10/12 14:41:52;;;;;;;;;4.67;4.67;;;;;26.23;44.76;101883.63;5054323;28;45772;-78
2022/10/12 14:44:20;;;;;;;;;6.33;5.00;;;;;26.17;44.79;101882.41;5052084;28;64090;-77
2022/10/12 14:46:49;;;;;;;;;6.67;4.67;;;;;26.12;44.42;101871.97;5041715;28;45490;-78
2022/10/12 14:49:23;;;;;;;;;4.67;4.67;;;;;26.12;44.87;101861.09;5043389;28;45473;-75
2022/10/12 14:51:50;;;;;;;;;8.00;5.00;;;;;26.10;44.71;101860.41;5045120;28;47839;-76
2022/10/12 14:54:16;;;;;;;;;5.00;5.00;;;;;26.08;44.38;101850.69;5041889;28;45409;-78
2022/10/12 14:56:41;;;;;;;;;6.33;6.33;;;;;26.08;45.19;101858.88;5045580;28;45680;-77
2022/10/12 14:59:06;;;;;;;;;4.67;4.67;;;;;26.06;45.21;101864.47;5044524;28;45534;-77
2022/10/12 15:01:32;;;;;;;;;5.33;5.33;;;;;26.03;45.23;101860.19;5045272;28;61004;-76
2022/10/12 15:03:57;;;;;;;;;6.00;5.33;;;;;26.04;45.28;101859.16;5039378;28;45389;-74
2022/10/12 15:06:22;;;;;;;;;6.00;4.67;;;;;26.01;45.62;101862.22;5054299;28;49286;-74
2022/10/12 15:08:48;;;;;;;;;5.33;5.33;;;;;25.99;45.00;101866.13;5047579;28;45513;-77
2022/10/12 15:11:14;;;;;;;;;4.67;4.67;;;;;25.89;45.51;101844.44;5052144;28;46509;-77
2022/10/12 15:13:40;;;;;;;;;7.00;5.00;;;;;25.97;45.26;101858.13;5044631;28;45517;-78
2022/10/12 15:16:20;;;;;;;;;6.33;6.00;;;;;25.95;45.60;101851.97;5043567;28;45474;-77
2022/10/12 15:18:45;;;;;;;;;6.33;6.33;;;;;25.98;45.07;101853.50;5046730;28;45753;-78
2022/10/12 15:21:10;;;;;;;;;4.33;4.33;;;;;25.92;45.23;101844.97;5071645;28;46117;-75
2022/10/12 15:23:36;;;;;;;;;5.00;4.00;;;;;25.96;44.91;101850.09;5065206;28;45515;-74
2022/10/12 15:26:02;;;;;;;;;4.33;4.33;;;;;25.93;44.69;101834.97;5065026;28;45499;-76
2022/10/12 15:28:28;;;;;;;;;4.33;4.33;;;;;25.93;45.18;101826.81;5056799;28;45510;-75
2022/10/12 15:30:56;;;;;;;;;5.33;4.00;;;;;25.91;45.04;101824.22;5057016;28;45573;-76
2022/10/12 15:33:22;;;;;;;;;5.00;4.67;;;;;25.92;44.84;101828.66;5073874;28;45352;-76
2022/10/12 15:35:48;;;;;;;;;4.00;3.67;;;;;25.91;45.55;101821.50;5064101;28;45377;-76
2022/10/12 15:38:14;;;;;;;;;6.00;6.00;;;;;25.89;44.63;101818.13;5036073;28;45596;-76
2022/10/12 15:40:41;;;;;;;;;7.00;5.00;;;;;25.87;45.11;101822.84;5048604;28;47133;-74
2022/10/12 15:43:08;;;;;;;;;3.67;3.00;;;;;25.85;44.95;101824.88;5048294;28;45429;-74
2022/10/12 15:45:35;;;;;;;;;6.33;5.67;;;;;25.85;45.23;101816.72;5056868;28;45444;-77
2022/10/12 15:48:04;;;;;;;;;6.00;6.00;;;;;25.86;45.47;101812.97;5055265;28;45511;-73
2022/10/12 15:50:38;;;;;;;;;2.33;2.33;;;;;25.86;45.57;101807.53;5057026;28;46181;-73
2022/10/12 15:53:04;;;;;;;;;6.00;4.33;;;;;25.84;44.83;101798.69;5062754;28;45399;-72
2022/10/12 15:55:31;;;;;;;;;6.00;5.00;;;;;25.88;44.97;101812.81;5069917;27;45383;-73
2022/10/12 15:57:57;;;;;;;;;7.00;4.00;;;;;25.85;45.26;101805.84;5064830;28;45482;-74
2022/10/12 16:00:26;;;;;;;;;3.33;3.33;;;;;25.90;45.21;101808.94;5041249;28;45905;-73
2022/10/12 16:02:52;;;;;;;;;5.33;5.33;;;;;25.90;45.93;101810.78;5056120;28;45479;-78
2022/10/12 16:05:34;;;;;;;;;6.00;4.67;;;;;25.91;46.04;101802.47;5056036;28;45301;-74
2022/10/12 16:08:01;;;;;;;;;3.00;3.00;;;;;25.91;45.68;101805.19;5056373;28;45409;-74
2022/10/12 16:10:35;;;;;;;;;4.33;4.00;;;;;25.92;46.29;101797.91;5054150;28;45412;-73
2022/10/12 16:13:02;;;;;;;;;3.00;3.00;;;;;25.91;45.96;101791.59;5045052;28;45657;-72
2022/10/12 16:15:30;;;;;;;;;4.00;4.00;;;;;25.91;45.72;101786.16;5060742;28;45498;-73
2022/10/12 16:17:56;;;;;;;;;5.00;5.00;;;;;25.90;45.93;101787.19;5054904;28;45351;-74
2022/10/12 16:20:22;;;;;;;;;3.67;3.00;;;;;25.89;46.24;101788.19;5059689;28;46204;-73
2022/10/12 16:22:48;;;;;;;;;5.00;5.00;;;;;25.88;46.55;101783.75;5056591;28;45475;-73
2022/10/12 16:25:16;;;;;;;;;5.67;5.67;;;;;25.90;46.58;101783.59;5057882;28;45506;-73
2022/10/12 16:27:42;;;;;;;;;7.33;6.00;;;;;25.89;46.40;101782.75;5061940;28;45608;-73
2022/10/12 16:30:09;;;;;;;;;5.00;3.33;;;;;25.89;47.16;101780.03;5062507;27;45492;-73
2022/10/12 16:32:34;;;;;;;;;4.67;4.67;;;;;25.89;46.95;101780.03;5058284;28;46083;-72
2022/10/12 16:34:59;;;;;;;;;4.33;3.33;;;;;25.89;46.92;101785.47;5058863;28;45825;-73
2022/10/12 16:37:24;;;;;;;;;4.00;4.00;;;;;25.89;47.01;101787.34;5066087;28;45459;-74
2022/10/12 16:39:53;;;;;;;;;4.67;4.67;;;;;25.90;44.65;101794.47;5060850;28;46123;-77
2022/10/12 16:42:19;;;;;;;;;5.67;4.33;;;;;25.95;42.78;101794.00;5063661;28;45412;-77
2022/10/12 16:44:44;;;;;;;;;5.00;5.00;;;;;25.95;42.31;101794.00;5055761;28;45490;-75
2022/10/12 16:47:11;;;;;;;;;3.67;3.67;;;;;25.89;41.92;101806.38;5064479;28;45920;-76
2022/10/12 16:49:36;;;;;;;;;6.00;6.00;;;;;25.80;41.71;101797.31;5056735;28;46160;-77
2022/10/12 16:52:03;;;;;;;;;5.00;5.00;;;;;25.69;41.95;101795.69;5061724;28;45494;-76
2022/10/12 16:54:28;;;;;;;;;5.00;5.00;;;;;25.62;41.92;101808.19;5052623;28;45340;-76
2022/10/12 16:56:55;;;;;;;;;10.00;9.00;;;;;25.51;41.61;101807.38;5061598;28;45451;-82
2022/10/12 16:59:20;;;;;;;;;5.67;5.00;;;;;25.42;42.17;101808.31;5062485;28;45769;-81
2022/10/12 17:01:45;;;;;;;;;5.00;4.00;;;;;25.34;42.72;101822.69;5060760;28;45526;-85
2022/10/12 18:18:05;;;;;;;;;10.67;8.33;;;;;20.49;50.07;101822.22;5066925;27;45891;-76
2022/10/12 18:20:32;;;;;;;;;11.50;10.50;;;;;20.57;50.05;101821.63;5061989;28;45404;-76
2022/10/12 18:22:57;;;;;;;;;9.25;8.25;;;;;20.72;50.50;101822.19;5057922;27;45550;-77
2022/10/12 18:25:23;;;;;;;;;9.67;9.67;;;;;20.92;50.17;101833.25;5051572;28;45332;-76
2022/10/12 18:27:49;;;;;;;;;11.00;9.00;;;;;21.13;50.54;101830.63;5052288;28;46057;-76
2022/10/12 18:30:14;;;;;;;;;10.67;10.67;;;;;21.38;49.85;101839.41;5058450;27;45492;-77
2022/10/12 18:32:39;;;;;;;;;8.00;8.00;;;;;21.64;50.29;101835.53;5061640;27;48737;-74
2022/10/12 18:35:06;;;;;;;;;8.00;8.00;;;;;21.88;49.80;101843.44;5066610;27;45477;-75
2022/10/12 18:37:31;;;;;;;;;9.67;9.67;;;;;22.16;49.44;101849.19;5066727;27;47114;-76
2022/10/12 18:39:56;;;;;;;;;11.00;10.33;;;;;22.41;49.42;101847.03;5063735;27;45511;-75
2022/10/12 18:42:22;;;;;;;;;9.00;8.67;;;;;22.64;48.87;101836.91;5059079;28;45704;-77
2022/10/12 18:44:47;;;;;;;;;10.00;10.00;;;;;22.87;48.73;101831.31;5063118;27;45495;-78
2022/10/12 18:47:12;;;;;;;;;10.00;10.00;;;;;23.08;48.35;101834.91;5061759;27;45939;-78
2022/10/12 18:49:38;;;;;;;;;8.67;8.67;;;;;23.27;48.18;101823.25;5064959;27;45753;-78
2022/10/12 18:52:03;;;;;;;;;10.67;10.67;;;;;23.46;47.70;101833.28;5056898;28;45448;-77
2022/10/12 18:54:28;;;;;;;;;12.00;11.33;;;;;23.62;47.30;101840.84;5067292;27;45552;-79
2022/10/12 18:56:54;;;;;;;;;11.33;9.67;;;;;23.76;46.99;101834.16;5060430;27;45810;-77
2022/10/12 18:59:19;;;;;;;;;9.33;9.33;;;;;23.88;46.74;101834.84;5051339;28;60775;-76
2022/10/12 19:01:45;;;;;;;;;12.33;9.67;;;;;23.98;46.73;101842.97;5057419;28;45749;-77
2022/10/12 19:04:11;;;;;;;;;12.00;10.33;;;;;24.06;46.28;101844.94;5050868;28;45455;-76
2022/10/12 19:06:40;;;;;;;;;12.00;11.00;;;;;24.13;46.02;101850.69;5061350;28;45411;-78
2022/10/12 19:09:06;;;;;;;;;11.00;9.33;;;;;24.19;45.95;101855.50;5057585;28;45666;-79
2022/10/12 19:11:31;;;;;;;;;12.33;11.67;;;;;24.25;46.24;101852.22;5065314;28;45511;-79
2022/10/12 19:14:04;;;;;;;;;11.33;9.67;;;;;24.33;46.55;101840.66;5058844;27;45500;-76
2022/10/12 19:16:33;;;;;;;;;10.67;10.67;;;;;24.34;46.32;101834.22;5059649;28;47086;-76
2022/10/12 19:19:04;;;;;;;;;12.67;11.00;;;;;24.46;46.05;101840.31;5064128;28;45466;-77
2022/10/12 19:21:30;;;;;;;;;10.33;9.67;;;;;24.46;46.07;101829.47;5063527;28;45464;-77
2022/10/12 19:23:56;;;;;;;;;11.33;11.33;;;;;24.48;46.05;101820.16;5057351;28;45928;-84
2022/10/12 19:26:24;;;;;;;;;13.67;13.67;;;;;24.60;45.75;101828.09;5050284;28;45550;-80